Time;durP1;ratioP1;P1;durP2;ratioP2;P2;SDS_P1;SDS_P2;PMS_P1;PMS_P2;Temp;Humidity;BMP_temperature;BMP_pressure;BME280_temperature;BME280_humidity;BME280_pressure;Samples;Min_cycle;Max_cycle;Signal;HPM_P1;HPM_P2
2021/12/13 00:01:59;;;;;;;10.68;8.82;;;12.90;76.90;;;;;;5040707;28;20032;-94
2021/12/13 00:04:37;;;;;;;10.95;9.32;;;12.90;76.90;;;;;;5058096;28;20025;-95
2021/12/13 00:07:08;;;;;;;9.43;7.88;;;12.90;76.90;;;;;;5058332;28;20051;-92
2021/12/13 00:09:42;;;;;;;10.57;8.95;;;12.90;76.90;;;;;;5057210;28;20025;-95
2021/12/13 00:12:09;;;;;;;10.02;8.90;;;12.90;76.90;;;;;;5057291;28;20477;-91
2021/12/13 00:14:45;;;;;;;9.63;8.43;;;12.90;76.90;;;;;;5057478;28;20112;-93
2021/12/13 00:17:15;;;;;;;11.40;9.05;;;12.90;76.90;;;;;;5057644;28;20033;-94
2021/12/13 00:20:05;;;;;;;10.07;8.30;;;12.90;76.90;;;;;;5040734;28;20377;-96
2021/12/13 00:22:46;;;;;;;10.27;8.77;;;12.90;76.90;;;;;;5040507;28;20508;-95
2021/12/13 00:25:17;;;;;;;10.75;9.00;;;12.90;76.90;;;;;;5041052;28;20040;-95
2021/12/13 00:27:48;;;;;;;10.13;8.27;;;12.90;76.90;;;;;;5040037;28;20044;-94
2021/12/13 00:30:31;;;;;;;9.93;8.48;;;12.90;76.90;;;;;;5039870;28;20029;-94
2021/12/13 00:33:07;;;;;;;9.60;8.05;;;12.90;76.90;;;;;;5056527;28;20082;-95
2021/12/13 00:35:45;;;;;;;9.77;8.25;;;12.90;76.90;;;;;;5056616;28;20029;-94
2021/12/13 00:38:13;;;;;;;10.55;8.50;;;12.90;76.90;;;;;;5056498;28;20068;-94
2021/12/13 00:40:44;;;;;;;9.25;7.93;;;12.90;76.90;;;;;;5039753;28;20029;-95
2021/12/13 00:43:17;;;;;;;9.73;8.20;;;12.90;76.90;;;;;;5056615;28;20025;-93
2021/12/13 00:46:11;;;;;;;9.10;7.72;;;12.90;76.90;;;;;;5057361;28;20032;-93
2021/12/13 00:48:42;;;;;;;9.40;7.85;;;12.90;76.90;;;;;;5036143;28;20049;-93
2021/12/13 00:51:16;;;;;;;8.25;7.15;;;13.00;76.90;;;;;;5057269;28;20029;-94
2021/12/13 00:53:49;;;;;;;9.50;7.68;;;12.90;76.80;;;;;;5040086;28;20033;-93
2021/12/13 00:56:43;;;;;;;8.88;7.72;;;13.00;76.90;;;;;;5039474;28;20037;-94
2021/12/13 00:59:13;;;;;;;8.90;7.75;;;13.00;76.90;;;;;;5057211;28;20049;-93
2021/12/13 01:01:40;;;;;;;8.90;7.22;;;12.90;76.80;;;;;;5039646;28;20042;-94
2021/12/13 01:04:12;;;;;;;8.57;7.22;;;12.90;76.80;;;;;;5056293;28;20029;-93
2021/12/13 01:07:16;;;;;;;8.52;7.35;;;13.00;76.90;;;;;;5055761;28;20040;-93
2021/12/13 01:10:19;;;;;;;8.20;6.70;;;13.00;77.00;;;;;;5056395;28;20473;-92
2021/12/13 01:12:47;;;;;;;8.90;7.53;;;12.90;76.90;;;;;;5038775;28;20469;-93
2021/12/13 01:15:27;;;;;;;9.27;7.25;;;13.00;76.90;;;;;;5055625;28;20385;-92
2021/12/13 01:21:01;;;;;;;8.30;6.85;;;12.90;76.90;;;;;;5056224;28;20079;-93
2021/12/13 01:23:44;;;;;;;8.25;6.97;;;13.00;76.90;;;;;;5038394;28;20048;-93
2021/12/13 01:28:47;;;;;;;8.82;7.30;;;13.00;76.90;;;;;;5056271;28;20029;-92
2021/12/13 01:31:21;;;;;;;8.55;6.80;;;13.00;76.90;;;;;;5055417;28;20446;-87
2021/12/13 01:33:50;;;;;;;;;;;13.00;76.90;;;;;;5038810;28;20465;-93
2021/12/13 01:36:26;;;;;;;8.73;6.75;;;13.00;76.90;;;;;;5038719;28;19999;-92
2021/12/13 01:38:56;;;;;;;8.68;7.20;;;13.00;76.80;;;;;;5039041;28;20075;-91
2021/12/13 01:41:32;;;;;;;8.05;7.22;;;13.00;76.90;;;;;;5039146;28;20125;-93
2021/12/13 01:44:06;;;;;;;7.68;6.20;;;13.00;76.90;;;;;;5039113;28;20060;-93
2021/12/13 01:46:39;;;;;;;8.43;6.95;;;12.90;76.90;;;;;;5055715;28;20366;-91
2021/12/13 01:49:06;;;;;;;9.10;7.55;;;13.00;76.90;;;;;;5056135;28;20142;-93
2021/12/13 01:51:33;;;;;;;8.43;7.05;;;13.00;76.80;;;;;;5038213;28;20033;-93
2021/12/13 01:54:08;;;;;;;8.38;7.00;;;13.00;76.80;;;;;;5038489;28;20090;-93
2021/12/13 01:59:53;;;;;;;8.65;7.00;;;13.00;76.90;;;;;;5042182;28;20036;-93
2021/12/13 02:02:51;;;;;;;8.25;7.10;;;13.00;76.80;;;;;;5038806;28;20377;-93
2021/12/13 02:05:19;;;;;;;9.48;6.75;;;13.00;76.80;;;;;;5050860;28;20079;-93
2021/12/13 02:07:52;;;;;;;7.97;6.82;;;13.00;76.80;;;;;;5055146;28;20033;-92
2021/12/13 02:10:25;;;;;;;8.73;6.88;;;13.00;76.80;;;;;;5055976;28;20040;-92
2021/12/13 02:12:57;;;;;;;8.15;6.93;;;13.00;76.80;;;;;;5056645;28;20043;-93
2021/12/13 02:18:13;;;;;;;9.27;7.20;;;13.00;76.80;;;;;;5057889;28;20041;-93
2021/12/13 02:20:45;;;;;;;9.50;7.40;;;13.00;76.80;;;;;;5057010;28;20025;-93
2021/12/13 02:23:11;;;;;;;8.77;7.43;;;13.00;76.90;;;;;;5057134;28;20071;-93
2021/12/13 02:25:42;;;;;;;8.75;7.43;;;13.00;76.90;;;;;;5056293;28;20114;-92
2021/12/13 02:28:18;;;;;;;9.43;7.75;;;13.00;76.90;;;;;;5054749;28;20083;-92
2021/12/13 02:31:17;;;;;;;9.68;7.70;;;13.00;76.90;;;;;;5054170;28;20048;-89
2021/12/13 02:33:54;;;;;;;8.95;7.40;;;13.00;77.00;;;;;;5037949;28;20028;-90
2021/12/13 02:36:29;;;;;;;9.30;7.65;;;13.00;76.90;;;;;;5038764;28;20032;-90
2021/12/13 02:39:06;;;;;;;9.07;7.20;;;13.00;76.90;;;;;;5038363;28;20021;-90
2021/12/13 02:41:33;;;;;;;8.35;7.38;;;13.00;76.90;;;;;;5037742;28;20037;-90
2021/12/13 02:44:07;;;;;;;9.20;7.57;;;13.00;76.90;;;;;;5038923;28;20021;-88
2021/12/13 02:46:37;;;;;;;10.27;8.43;;;13.00;76.90;;;;;;5057485;28;20040;-89
2021/12/13 02:49:07;;;;;;;9.20;7.82;;;13.00;76.90;;;;;;5042842;28;20029;-90
2021/12/13 02:51:38;;;;;;;9.93;8.52;;;13.00;76.90;;;;;;5037737;28;20079;-90
2021/12/13 02:54:21;;;;;;;8.63;7.60;;;13.00;76.90;;;;;;5040304;28;20167;-91
2021/12/13 02:57:13;;;;;;;9.82;8.65;;;13.00;77.00;;;;;;5056256;28;20041;-91
2021/12/13 02:59:51;;;;;;;9.65;7.93;;;13.00;76.90;;;;;;5038880;28;20171;-90
2021/12/13 03:02:31;;;;;;;9.45;8.30;;;13.00;76.90;;;;;;5056981;28;20032;-90
2021/12/13 03:04:58;;;;;;;9.27;7.90;;;13.00;77.00;;;;;;5029949;28;20064;-91
2021/12/13 03:07:33;;;;;;;10.25;8.60;;;13.00;76.90;;;;;;5046350;28;20029;-93
2021/12/13 03:10:08;;;;;;;9.75;8.43;;;13.00;77.00;;;;;;5060015;28;20032;-91
2021/12/13 03:12:34;;;;;;;9.52;8.05;;;13.00;77.00;;;;;;5047332;28;20040;-91
2021/12/13 03:15:08;;;;;;;8.75;7.50;;;13.00;76.90;;;;;;5045321;28;20044;-90
2021/12/13 03:17:56;;;;;;;9.45;7.88;;;13.00;77.00;;;;;;5044643;28;20040;-91
2021/12/13 03:20:40;;;;;;;9.57;8.27;;;13.00;77.10;;;;;;5044851;28;20037;-91
2021/12/13 03:23:23;;;;;;;9.63;8.50;;;13.00;77.10;;;;;;5045428;28;20045;-90
2021/12/13 03:26:06;;;;;;;9.45;8.18;;;13.00;77.10;;;;;;5046066;28;20040;-91
2021/12/13 03:29:07;;;;;;;10.18;8.05;;;13.00;77.00;;;;;;5049590;28;20044;-91
2021/12/13 03:31:44;;;;;;;9.40;8.15;;;13.00;77.30;;;;;;5049243;28;20386;-91
2021/12/13 03:34:35;;;;;;;9.80;8.23;;;13.00;77.10;;;;;;5048660;28;20096;-92
2021/12/13 03:37:16;;;;;;;10.38;8.07;;;12.90;77.20;;;;;;5065773;28;20044;-91
2021/12/13 03:39:46;;;;;;;9.32;7.80;;;12.90;77.10;;;;;;5066673;28;20472;-89
2021/12/13 03:42:19;;;;;;;9.70;8.55;;;13.00;77.20;;;;;;5050171;28;20031;-90
2021/12/13 03:44:53;;;;;;;9.45;8.15;;;12.90;77.20;;;;;;5047062;28;20083;-90
2021/12/13 03:47:26;;;;;;;9.00;7.63;;;13.00;77.20;;;;;;5045743;28;20068;-89
2021/12/13 03:49:58;;;;;;;9.93;7.70;;;12.90;77.20;;;;;;5061679;28;20025;-90
2021/12/13 03:52:28;;;;;;;8.95;7.97;;;13.00;77.20;;;;;;5046858;28;20033;-88
2021/12/13 03:54:57;;;;;;;9.40;7.53;;;12.90;77.20;;;;;;5046704;28;20051;-90
2021/12/13 03:57:24;;;;;;;8.50;7.25;;;13.00;77.20;;;;;;5062148;28;20040;-91
2021/12/13 03:59:51;;;;;;;9.25;7.78;;;13.00;77.20;;;;;;5061710;28;20389;-90
2021/12/13 04:02:31;;;;;;;9.38;8.07;;;12.90;77.20;;;;;;5061881;28;20488;-91
2021/12/13 04:05:01;;;;;;;9.57;7.90;;;12.90;77.30;;;;;;5044809;28;20107;-90
2021/12/13 04:07:34;;;;;;;8.57;7.38;;;12.90;77.20;;;;;;5044932;28;20424;-93
2021/12/13 04:10:08;;;;;;;8.88;7.68;;;13.00;77.30;;;;;;5045915;28;20503;-91
2021/12/13 04:12:43;;;;;;;8.68;7.38;;;12.90;78.00;;;;;;5044264;28;20083;-91
2021/12/13 04:15:34;;;;;;;9.73;7.93;;;12.90;77.20;;;;;;5043464;28;20033;-92
2021/12/13 04:18:16;;;;;;;9.25;7.55;;;12.90;77.30;;;;;;5060748;28;20036;-92
2021/12/13 04:20:44;;;;;;;8.50;7.28;;;12.90;77.20;;;;;;5044308;28;20055;-93
2021/12/13 04:23:21;;;;;;;8.75;7.47;;;12.90;77.30;;;;;;5040661;28;20052;-90
2021/12/13 04:25:50;;;;;;;7.65;6.53;;;12.90;77.30;;;;;;5025366;28;20045;-92
2021/12/13 04:28:33;;;;;;;9.90;8.15;;;12.90;77.30;;;;;;5040843;28;20043;-91
2021/12/13 04:31:08;;;;;;;8.90;7.13;;;12.90;77.40;;;;;;5057241;28;20029;-91
2021/12/13 04:33:44;;;;;;;9.18;7.38;;;12.90;77.30;;;;;;5041110;28;20021;-91
2021/12/13 04:36:28;;;;;;;7.80;6.78;;;12.90;77.40;;;;;;5056848;28;20040;-91
2021/12/13 04:39:01;;;;;;;8.30;7.00;;;12.90;77.40;;;;;;5057548;28;20036;-91
2021/12/13 04:41:53;;;;;;;7.60;6.50;;;12.90;77.40;;;;;;5057140;28;20040;-90
2021/12/13 04:44:34;;;;;;;9.70;7.50;;;12.90;77.50;;;;;;5040768;28;20025;-92
2021/12/13 04:47:14;;;;;;;8.25;6.97;;;12.90;77.40;;;;;;5040410;28;20487;-90
2021/12/13 04:49:51;;;;;;;8.65;6.90;;;12.80;77.40;;;;;;5040089;28;20065;-91
2021/12/13 04:52:21;;;;;;;8.70;6.95;;;12.80;77.40;;;;;;5039891;28;20159;-90
2021/12/13 04:54:51;;;;;;;7.47;6.32;;;12.80;77.40;;;;;;5039261;28;20108;-91
2021/12/13 04:57:18;;;;;;;8.73;6.93;;;12.80;77.40;;;;;;5040191;28;20041;-90
2021/12/13 05:00:02;;;;;;;8.45;6.90;;;12.90;77.50;;;;;;5039455;28;20027;-92
2021/12/13 05:02:31;;;;;;;8.30;6.82;;;12.80;77.50;;;;;;5040560;28;20032;-90
2021/12/13 05:04:59;;;;;;;9.00;7.13;;;12.80;77.40;;;;;;5056547;28;20531;-91
2021/12/13 05:07:31;;;;;;;8.70;6.60;;;12.90;77.50;;;;;;5039319;28;20029;-91
2021/12/13 05:09:58;;;;;;;8.40;6.93;;;12.80;77.50;;;;;;5039026;28;20115;-89
2021/12/13 05:12:28;;;;;;;8.02;6.43;;;12.80;77.40;;;;;;5056089;28;20112;-91
2021/12/13 05:15:04;;;;;;;8.38;6.93;;;12.80;77.40;;;;;;5055286;28;20078;-91
2021/12/13 05:17:41;;;;;;;8.07;6.25;;;12.80;77.50;;;;;;5038382;28;20040;-91
2021/12/13 05:20:07;;;;;;;8.10;6.30;;;12.80;77.50;;;;;;5056125;28;20032;-91
2021/12/13 05:22:43;;;;;;;8.95;6.63;;;12.80;77.40;;;;;;5038454;28;20052;-93
2021/12/13 05:25:09;;;;;;;8.25;6.85;;;12.80;77.50;;;;;;5039446;28;20032;-92
2021/12/13 05:27:42;;;;;;;8.43;6.80;;;12.80;77.50;;;;;;5055346;28;20029;-91
2021/12/13 05:30:23;;;;;;;8.65;6.88;;;12.80;77.50;;;;;;5038765;28;20120;-91
2021/12/13 05:32:55;;;;;;;8.38;6.75;;;12.80;77.60;;;;;;5038768;28;20029;-91
2021/12/13 05:35:39;;;;;;;7.72;6.50;;;12.80;77.50;;;;;;5038549;28;20044;-91
2021/12/13 05:38:21;;;;;;;8.35;6.38;;;12.80;77.60;;;;;;5037999;28;20120;-90
2021/12/13 05:40:47;;;;;;;7.90;6.50;;;12.80;77.50;;;;;;5038353;28;20029;-92
2021/12/13 05:43:21;;;;;;;8.60;7.22;;;12.80;77.50;;;;;;5037693;28;20017;-88
2021/12/13 05:45:58;;;;;;;7.65;6.30;;;12.80;78.20;;;;;;5038051;28;20037;-85
2021/12/13 05:48:41;;;;;;;9.02;6.80;;;12.80;77.60;;;;;;5038083;28;20035;-85
2021/12/13 05:51:23;;;;;;;7.85;6.18;;;12.80;77.60;;;;;;5054567;28;20056;-85
2021/12/13 05:54:04;;;;;;;8.82;7.22;;;12.80;77.60;;;;;;5055150;28;20032;-86
2021/12/13 05:56:47;;;;;;;9.38;6.95;;;12.70;77.50;;;;;;5054784;28;20094;-87
2021/12/13 05:59:30;;;;;;;7.55;6.30;;;12.70;77.60;;;;;;5054676;28;20396;-85
2021/12/13 06:02:02;;;;;;;8.52;6.75;;;12.70;77.60;;;;;;5037802;28;20483;-85
2021/12/13 06:04:41;;;;;;;8.65;6.80;;;12.70;77.60;;;;;;5037742;28;20060;-87
2021/12/13 06:07:34;;;;;;;8.95;6.03;;;12.70;77.60;;;;;;5038141;28;20575;-87
2021/12/13 06:10:09;;;;;;;8.68;7.05;;;12.70;77.70;;;;;;5035398;28;20041;-87
2021/12/13 06:12:48;;;;;;;8.02;6.25;;;12.70;77.60;;;;;;5055262;28;20029;-85
2021/12/13 06:15:16;;;;;;;7.95;6.20;;;12.70;77.60;;;;;;5038121;28;20039;-87
2021/12/13 06:18:04;;;;;;;8.57;6.75;;;12.70;77.60;;;;;;5054254;28;20029;-87
2021/12/13 06:20:37;;;;;;;8.50;6.50;;;12.70;77.70;;;;;;5038201;28;20032;-84
2021/12/13 06:23:25;;;;;;;9.27;7.03;;;12.70;77.60;;;;;;5054273;28;20057;-84
2021/12/13 06:26:01;;;;;;;9.00;7.07;;;12.70;77.60;;;;;;5054404;28;20035;-83
2021/12/13 06:28:35;;;;;;;8.02;6.43;;;12.70;77.60;;;;;;5054049;28;20517;-87
2021/12/13 06:31:12;;;;;;;9.50;7.25;;;12.70;77.70;;;;;;5037492;28;20025;-84
2021/12/13 06:33:59;;;;;;;8.00;6.22;;;12.70;77.70;;;;;;5054151;28;20021;-87
2021/12/13 06:36:34;;;;;;;9.43;7.00;;;12.70;77.70;;;;;;5036987;28;20025;-87
2021/12/13 06:39:05;;;;;;;8.55;6.35;;;12.60;77.60;;;;;;5037567;28;20024;-84
2021/12/13 06:41:41;;;;;;;8.50;6.72;;;12.60;77.60;;;;;;5054239;28;20025;-85
2021/12/13 06:44:16;;;;;;;8.77;6.63;;;12.60;77.60;;;;;;5036926;28;20025;-85
2021/12/13 06:47:07;;;;;;;8.18;6.22;;;12.60;77.60;;;;;;5036680;28;20439;-86
2021/12/13 06:49:53;;;;;;;8.35;6.32;;;12.70;77.80;;;;;;5037499;28;20068;-86
2021/12/13 06:52:29;;;;;;;7.88;6.22;;;12.60;77.60;;;;;;5053740;28;20032;-86
2021/12/13 06:54:58;;;;;;;8.60;6.68;;;12.70;78.30;;;;;;5053505;28;20048;-85
2021/12/13 06:57:30;;;;;;;8.45;6.43;;;12.60;77.70;;;;;;5053746;28;20028;-85
2021/12/13 07:00:04;;;;;;;8.30;6.45;;;12.60;77.70;;;;;;5054254;28;20028;-85
2021/12/13 07:02:35;;;;;;;8.82;6.68;;;12.60;77.70;;;;;;5054232;28;20029;-85
2021/12/13 07:05:24;;;;;;;8.10;6.35;;;12.60;77.70;;;;;;5037338;28;20060;-86
2021/12/13 07:08:09;;;;;;;8.30;6.20;;;12.60;77.90;;;;;;5036809;28;20037;-85
2021/12/13 07:10:35;;;;;;;;;;;12.60;77.70;;;;;;5054256;28;20028;-86
2021/12/13 07:13:08;;;;;;;8.35;6.30;;;12.60;77.60;;;;;;5054988;28;19912;-84
2021/12/13 07:15:40;;;;;;;7.95;6.43;;;12.60;77.90;;;;;;5053561;28;20036;-85
2021/12/13 07:18:14;;;;;;;8.50;6.70;;;12.50;77.80;;;;;;5054493;28;20043;-85
2021/12/13 07:21:01;;;;;;;8.35;6.18;;;12.60;77.90;;;;;;5058498;28;20029;-86
2021/12/13 07:23:27;;;;;;;8.02;5.85;;;12.50;77.80;;;;;;5053422;28;20046;-87
2021/12/13 07:25:54;;;;;;;8.73;6.50;;;12.60;77.80;;;;;;5020472;28;20032;-85
2021/12/13 07:28:36;;;;;;;9.50;6.60;;;12.60;77.80;;;;;;5037536;28;20056;-85
2021/12/13 07:31:07;;;;;;;9.00;6.72;;;12.60;77.90;;;;;;5054091;28;20104;-83
2021/12/13 07:33:43;;;;;;;9.05;6.95;;;12.50;77.80;;;;;;5053012;28;20033;-84
2021/12/13 07:36:28;;;;;;;8.88;6.55;;;12.60;77.90;;;;;;5036729;28;20032;-85
2021/12/13 07:38:57;;;;;;;8.70;6.20;;;12.60;77.90;;;;;;5036573;28;20041;-86
2021/12/13 07:41:26;;;;;;;8.43;6.28;;;12.50;77.70;;;;;;5053472;28;20023;-85
2021/12/13 07:43:52;;;;;;;8.88;6.13;;;12.50;77.80;;;;;;5052448;28;20040;-85
2021/12/13 07:46:17;;;;;;;8.43;6.65;;;12.50;77.80;;;;;;5053091;28;20477;-85
2021/12/13 07:48:43;;;;;;;8.90;7.10;;;12.60;77.80;;;;;;5036817;28;20040;-85
2021/12/13 07:51:15;;;;;;;9.65;6.88;;;12.50;77.80;;;;;;5053170;28;20021;-85
2021/12/13 07:53:43;;;;;;;7.85;6.03;;;12.50;77.80;;;;;;5053004;28;20029;-84
2021/12/13 07:56:18;;;;;;;8.52;6.28;;;12.50;77.80;;;;;;5052948;28;20025;-85
2021/12/13 07:58:47;;;;;;;8.25;6.13;;;12.50;77.80;;;;;;5056828;28;20033;-84
2021/12/13 08:01:23;;;;;;;8.27;6.45;;;12.50;77.80;;;;;;5056675;28;20533;-86
2021/12/13 08:03:53;;;;;;;9.40;6.35;;;12.50;77.80;;;;;;5039535;28;20115;-89
2021/12/13 08:06:21;;;;;;;9.35;7.00;;;12.50;77.80;;;;;;5040372;28;20036;-88
2021/12/13 08:08:51;;;;;;;8.20;6.35;;;12.50;77.80;;;;;;5040231;28;20029;-88
2021/12/13 08:11:18;;;;;;;8.93;7.07;;;12.50;77.80;;;;;;5040493;28;20052;-88
2021/12/13 08:13:57;;;;;;;8.23;6.25;;;12.50;77.80;;;;;;5040310;28;20095;-88
2021/12/13 08:16:38;;;;;;;9.45;6.80;;;12.50;77.80;;;;;;5057661;28;20037;-89
2021/12/13 08:19:33;;;;;;;8.80;6.43;;;12.50;77.80;;;;;;5058268;28;20079;-89
2021/12/13 08:22:02;;;;;;;7.28;5.75;;;12.50;77.90;;;;;;5035937;28;20129;-89
2021/12/13 08:24:38;;;;;;;8.23;5.82;;;12.50;77.80;;;;;;5039839;28;20032;-89
2021/12/13 08:27:12;;;;;;;8.32;6.22;;;12.50;77.80;;;;;;5060704;28;20091;-91
2021/12/13 08:29:40;;;;;;;8.23;5.78;;;12.50;77.80;;;;;;5046492;28;20127;-88
2021/12/13 08:32:19;;;;;;;8.10;5.88;;;12.50;77.80;;;;;;5056750;28;20067;-88
2021/12/13 08:34:58;;;;;;;9.48;6.78;;;12.50;77.90;;;;;;5058161;28;20044;-88
2021/12/13 08:37:28;;;;;;;8.38;6.28;;;12.50;77.80;;;;;;5056537;28;20033;-90
2021/12/13 08:40:16;;;;;;;9.15;6.32;;;12.50;77.90;;;;;;5056317;28;20033;-89
2021/12/13 08:42:46;;;;;;;8.00;5.93;;;12.50;77.90;;;;;;5039407;28;20033;-89
2021/12/13 08:45:26;;;;;;;7.88;5.93;;;12.50;77.80;;;;;;5057158;28;20025;-89
2021/12/13 08:47:57;;;;;;;7.20;5.32;;;12.50;77.90;;;;;;5039441;28;20039;-87
2021/12/13 08:50:29;;;;;;;7.43;5.68;;;12.50;77.90;;;;;;5056105;28;20029;-88
2021/12/13 08:53:10;;;;;;;8.13;6.10;;;12.50;77.90;;;;;;5038857;28;20036;-88
2021/12/13 08:55:42;;;;;;;8.13;5.82;;;12.50;77.90;;;;;;5039319;28;20032;-88
2021/12/13 08:58:18;;;;;;;8.55;5.00;;;12.50;77.90;;;;;;5039449;28;20033;-88
2021/12/13 09:01:08;;;;;;;7.97;5.40;;;12.50;77.90;;;;;;5056947;28;20063;-89
2021/12/13 09:04:04;;;;;;;7.00;5.40;;;12.50;78.00;;;;;;5039761;28;20032;-89
2021/12/13 09:06:33;;;;;;;8.13;5.53;;;12.40;78.00;;;;;;5023011;28;20132;-88
2021/12/13 09:09:14;;;;;;;8.30;5.82;;;12.40;77.80;;;;;;5038549;28;20523;-88
2021/12/13 09:11:56;;;;;;;7.90;5.95;;;12.40;77.90;;;;;;5055626;28;20032;-89
2021/12/13 09:14:27;;;;;;;8.00;6.00;;;12.40;77.90;;;;;;5055231;28;20067;-89
2021/12/13 09:17:07;;;;;;;7.10;5.15;;;12.40;77.90;;;;;;5055829;28;20063;-88
2021/12/13 09:19:47;;;;;;;8.25;5.82;;;12.40;77.90;;;;;;5039871;28;20036;-89
2021/12/13 09:26:10;;;;;;;7.38;5.38;;;12.40;78.10;;;;;;5057607;28;20074;-88
2021/12/13 09:32:23;;;;;;;7.45;5.28;;;12.40;78.10;;;;;;5056709;28;20436;-88
2021/12/13 09:34:52;;;;;;;6.78;5.15;;;12.40;78.00;;;;;;5041052;28;20029;-89
2021/12/13 09:37:18;;;;;;;8.20;5.60;;;12.40;78.10;;;;;;5043992;28;20100;-90
2021/12/13 09:39:45;;;;;;;7.35;5.03;;;12.40;78.10;;;;;;5023461;28;20457;-88
2021/12/13 09:42:17;;;;;;;8.02;5.47;;;12.40;78.10;;;;;;5039416;28;20021;-95
2021/12/13 09:45:00;;;;;;;7.20;5.28;;;12.40;78.20;;;;;;5038083;28;20054;-85
2021/12/13 09:47:36;;;;;;;7.72;5.57;;;12.40;78.20;;;;;;5050020;28;20116;-85
2021/12/13 09:50:20;;;;;;;7.43;5.32;;;12.40;78.80;;;;;;5037738;28;20390;-89
2021/12/13 09:52:51;;;;;;;7.60;5.82;;;12.50;78.20;;;;;;5055935;28;20065;-90
2021/12/13 09:55:25;;;;;;;7.90;5.50;;;12.40;78.10;;;;;;5054586;28;20032;-88
2021/12/13 09:58:03;;;;;;;7.30;5.17;;;12.40;78.10;;;;;;5038678;28;20029;-88
2021/12/13 10:00:35;;;;;;;8.13;5.53;;;12.40;78.20;;;;;;5055693;28;20302;-88
2021/12/13 10:03:06;;;;;;;8.95;5.40;;;12.40;78.00;;;;;;5037932;28;20029;-90
2021/12/13 10:05:39;;;;;;;7.07;5.28;;;12.50;78.20;;;;;;5055024;28;20021;-88
2021/12/13 10:08:16;;;;;;;7.45;5.18;;;12.40;78.10;;;;;;5055484;28;20052;-88
2021/12/13 10:10:52;;;;;;;7.57;5.18;;;12.40;78.10;;;;;;5038189;28;20106;-87
2021/12/13 10:13:22;;;;;;;7.18;5.25;;;12.50;78.20;;;;;;5055039;28;20032;-87
2021/12/13 10:16:11;;;;;;;7.90;5.07;;;12.50;78.10;;;;;;5055636;28;20024;-88
2021/12/13 10:18:42;;;;;;;7.65;5.47;;;12.40;78.20;;;;;;5038119;28;20378;-88
2021/12/13 10:21:32;;;;;;;7.18;5.20;;;12.50;78.00;;;;;;5053501;28;20033;-88
2021/12/13 10:24:06;;;;;;;7.10;5.20;;;12.40;78.20;;;;;;5037561;28;20041;-88
2021/12/13 10:26:37;;;;;;;6.72;4.85;;;12.50;78.10;;;;;;5037620;28;20059;-87
2021/12/13 10:29:06;;;;;;;6.22;4.75;;;12.40;78.00;;;;;;5038374;28;20029;-88
2021/12/13 10:31:38;;;;;;;7.22;4.82;;;12.40;78.00;;;;;;5054523;28;20033;-88
2021/12/13 10:34:09;;;;;;;7.35;5.15;;;12.50;78.10;;;;;;5053789;28;20044;-88
2021/12/13 10:36:39;;;;;;;6.47;4.53;;;12.40;78.10;;;;;;5038663;28;20102;-88
2021/12/13 10:39:19;;;;;;;7.20;4.95;;;12.40;78.10;;;;;;5038268;28;20051;-88
2021/12/13 10:41:50;;;;;;;7.55;5.13;;;12.50;78.20;;;;;;5055281;28;20480;-90
2021/12/13 10:44:27;;;;;;;6.07;4.68;;;12.50;78.10;;;;;;5042113;28;20029;-87
2021/12/13 10:47:09;;;;;;;6.28;4.75;;;12.50;78.10;;;;;;5040096;28;20484;-88
2021/12/13 10:49:40;;;;;;;7.50;4.95;;;12.50;78.20;;;;;;5038262;28;20033;-88
2021/12/13 10:52:18;;;;;;;7.43;4.75;;;12.50;78.10;;;;;;5054037;28;20048;-88
2021/12/13 10:54:51;;;;;;;6.88;5.03;;;12.50;78.10;;;;;;5054381;28;20036;-88
2021/12/13 10:57:25;;;;;;;6.30;4.45;;;12.50;78.10;;;;;;5038073;28;20479;-88
2021/12/13 10:59:52;;;;;;;6.47;4.53;;;12.50;78.10;;;;;;5037835;28;20025;-88
2021/12/13 11:02:24;;;;;;;6.30;4.50;;;12.50;78.10;;;;;;5037024;28;20036;-88
2021/12/13 11:04:55;;;;;;;6.47;4.72;;;12.50;78.10;;;;;;5054010;28;20028;-88
2021/12/13 11:07:22;;;;;;;5.95;4.30;;;12.50;78.10;;;;;;5054321;28;20075;-88
2021/12/13 11:09:50;;;;;;;6.15;4.60;;;12.50;78.00;;;;;;5037069;28;20060;-88
2021/12/13 11:12:27;;;;;;;6.13;4.47;;;12.50;78.10;;;;;;5053089;28;20029;-88
2021/12/13 11:15:01;;;;;;;6.05;4.30;;;12.50;78.10;;;;;;5053786;28;20124;-91
2021/12/13 11:17:31;;;;;;;6.38;4.20;;;12.50;78.10;;;;;;5036828;28;20445;-89
2021/12/13 11:20:03;;;;;;;5.90;4.20;;;12.50;78.00;;;;;;5054497;28;20036;-87
2021/12/13 11:22:31;;;;;;;6.00;4.18;;;12.50;78.00;;;;;;5036659;28;20053;-89
2021/12/13 11:25:14;;;;;;;5.78;4.43;;;12.60;78.10;;;;;;5036997;28;20033;-88
2021/12/13 11:27:43;;;;;;;6.60;4.55;;;12.50;78.10;;;;;;5037767;28;20039;-88
2021/12/13 11:30:15;;;;;;;6.18;4.20;;;12.50;78.00;;;;;;5036711;28;20120;-89
2021/12/13 11:32:59;;;;;;;6.32;3.90;;;12.50;78.10;;;;;;5039394;28;20029;-88
2021/12/13 11:36:03;;;;;;;5.97;4.40;;;12.60;78.20;;;;;;5041376;28;20038;-88
2021/12/13 11:38:47;;;;;;;7.25;4.07;;;12.50;78.10;;;;;;5040561;28;20032;-88
2021/12/13 11:41:42;;;;;;;6.00;4.00;;;12.50;78.00;;;;;;5040967;28;20120;-88
2021/12/13 11:44:29;;;;;;;5.70;3.95;;;12.50;78.10;;;;;;5040921;28;20036;-93
2021/12/13 11:47:23;;;;;;;6.07;4.00;;;12.50;78.10;;;;;;5056925;28;20186;-89
2021/12/13 11:50:00;;;;;;;5.63;4.05;;;12.50;78.20;;;;;;5057367;28;20131;-88
2021/12/13 11:53:03;;;;;;;6.07;4.38;;;12.60;78.20;;;;;;5060511;28;20036;-88
2021/12/13 11:55:35;;;;;;;5.45;3.95;;;12.50;78.20;;;;;;5040916;28;20029;-89
2021/12/13 11:58:18;;;;;;;5.57;4.15;;;12.50;78.10;;;;;;5057170;28;20036;-87
2021/12/13 12:01:08;;;;;;;5.63;3.92;;;12.50;78.20;;;;;;5040498;28;20028;-88
2021/12/13 12:03:52;;;;;;;5.50;3.95;;;12.50;78.20;;;;;;5056533;28;20537;-88
2021/12/13 12:06:46;;;;;;;5.63;3.90;;;12.50;78.20;;;;;;5058163;28;20524;-88
2021/12/13 12:09:29;;;;;;;5.43;4.10;;;12.50;78.20;;;;;;5056822;28;20495;-91
2021/12/13 12:12:10;;;;;;;5.35;4.10;;;12.60;78.20;;;;;;5040073;28;20033;-88
2021/12/13 12:14:36;;;;;;;5.30;3.83;;;12.50;78.10;;;;;;5040785;28;20025;-85
2021/12/13 12:17:05;;;;;;;6.20;3.90;;;12.60;78.10;;;;;;5056442;28;20036;-85
2021/12/13 12:19:40;;;;;;;5.50;3.60;;;12.60;78.20;;;;;;5039978;28;20025;-86
2021/12/13 12:22:08;;;;;;;5.50;3.88;;;12.50;78.00;;;;;;5057057;28;20087;-80
2021/12/13 12:24:44;;;;;;;10.57;4.43;;;12.60;78.10;;;;;;5055671;28;20021;-86
2021/12/13 12:27:18;;;;;;;5.28;3.50;;;12.60;78.70;;;;;;5056128;28;20025;-85
2021/12/13 12:29:51;;;;;;;4.93;3.67;;;12.60;78.10;;;;;;5057806;28;20037;-85
2021/12/13 12:32:28;;;;;;;5.68;4.05;;;12.60;78.10;;;;;;5056255;28;20110;-85
2021/12/13 12:35:11;;;;;;;4.90;3.45;;;12.60;78.20;;;;;;5039582;28;20060;-84
2021/12/13 12:38:02;;;;;;;5.30;3.60;;;12.60;78.10;;;;;;5056818;28;20036;-84
2021/12/13 12:40:39;;;;;;;5.00;3.58;;;12.60;78.20;;;;;;5039138;28;20135;-86
2021/12/13 12:43:11;;;;;;;5.30;3.78;;;12.60;78.20;;;;;;5038667;28;20055;-86
2021/12/13 12:45:52;;;;;;;5.05;3.80;;;12.60;78.10;;;;;;5039644;28;20036;-86
2021/12/13 12:48:43;;;;;;;5.80;3.85;;;12.60;78.20;;;;;;5039575;28;20036;-88
2021/12/13 12:51:27;;;;;;;5.00;3.65;;;12.60;78.20;;;;;;5039222;28;20044;-86
2021/12/13 12:54:05;;;;;;;4.53;3.17;;;12.60;78.20;;;;;;5055898;28;20048;-87
2021/12/13 12:56:39;;;;;;;5.13;3.38;;;12.60;78.10;;;;;;5039439;28;20024;-85
2021/12/13 12:59:10;;;;;;;5.23;3.40;;;12.70;78.20;;;;;;5056487;28;20083;-86
2021/12/13 13:01:53;;;;;;;4.90;3.47;;;12.60;78.10;;;;;;5056585;28;20025;-85
2021/12/13 13:04:29;;;;;;;5.30;3.58;;;12.70;78.20;;;;;;5039075;28;20036;-86
2021/12/13 13:06:55;;;;;;;4.95;3.47;;;12.60;78.10;;;;;;5039633;28;20056;-85
2021/12/13 13:09:22;;;;;;;5.50;3.90;;;12.70;78.10;;;;;;5055551;28;20033;-85
2021/12/13 13:11:51;;;;;;;4.88;3.58;;;12.60;78.10;;;;;;5055494;28;20053;-85
2021/12/13 13:14:22;;;;;;;4.85;3.40;;;12.70;78.10;;;;;;5039033;28;20028;-86
2021/12/13 13:16:56;;;;;;;4.72;3.40;;;12.70;78.10;;;;;;5039571;28;20108;-88
2021/12/13 13:19:37;;;;;;;4.15;3.15;;;12.70;78.10;;;;;;5038656;28;20037;-85
2021/12/13 13:22:15;;;;;;;5.57;3.72;;;12.70;78.10;;;;;;5038431;28;20048;-86
2021/12/13 13:24:50;;;;;;;4.55;3.05;;;12.70;78.10;;;;;;5057120;28;20053;-86
2021/12/13 13:27:18;;;;;;;4.93;3.35;;;12.70;78.10;;;;;;5039079;28;20084;-84
2021/12/13 13:29:44;;;;;;;5.35;3.65;;;12.70;78.10;;;;;;5055935;28;20025;-85
2021/12/13 13:32:12;;;;;;;4.45;3.45;;;12.70;78.00;;;;;;5038249;28;20074;-86
2021/12/13 13:34:54;;;;;;;4.57;3.20;;;12.70;78.00;;;;;;5054471;28;20040;-82
2021/12/13 13:37:21;;;;;;;3.97;2.83;;;12.70;78.10;;;;;;5054970;28;20033;-85
2021/12/13 13:40:00;;;;;;;5.13;3.47;;;12.70;78.00;;;;;;5054880;28;20032;-85
2021/12/13 13:42:33;;;;;;;5.03;3.85;;;12.80;78.10;;;;;;5038948;28;20060;-84
2021/12/13 13:45:17;;;;;;;4.15;2.92;;;12.80;78.10;;;;;;5054624;28;20029;-85
2021/12/13 13:47:50;;;;;;;3.90;3.03;;;12.70;78.10;;;;;;5055268;28;20029;-85
2021/12/13 13:50:22;;;;;;;4.78;3.40;;;12.80;78.00;;;;;;5038943;28;20044;-84
2021/12/13 13:52:51;;;;;;;5.32;3.80;;;12.70;78.00;;;;;;5038076;28;20036;-84